sensor_id;sensor_type;location;lat;lon;timestamp;P1;durP1;ratioP1;P2;durP2;ratioP2
2618;SDS011;1319;52.346;13.096;2023-06-14T00:01:23;3.70;;;2.50;;
2618;SDS011;1319;52.346;13.096;2023-06-14T00:03:48;9.53;;;3.30;;
2618;SDS011;1319;52.346;13.096;2023-06-14T00:06:13;7.53;;;2.90;;
2618;SDS011;1319;52.346;13.096;2023-06-14T00:08:39;2.70;;;2.50;;
2618;SDS011;1319;52.346;13.096;2023-06-14T00:11:05;5.40;;;2.50;;
2618;SDS011;1319;52.346;13.096;2023-06-14T00:13:30;17.07;;;4.50;;
2618;SDS011;1319;52.346;13.096;2023-06-14T00:15:56;8.80;;;3.80;;
2618;SDS011;1319;52.346;13.096;2023-06-14T00:18:21;9.33;;;3.83;;
2618;SDS011;1319;52.346;13.096;2023-06-14T00:20:49;5.70;;;2.90;;
2618;SDS011;1319;52.346;13.096;2023-06-14T00:23:14;5.70;;;3.33;;
2618;SDS011;1319;52.346;13.096;2023-06-14T00:25:40;3.40;;;3.10;;
2618;SDS011;1319;52.346;13.096;2023-06-14T00:28:05;5.63;;;3.40;;
2618;SDS011;1319;52.346;13.096;2023-06-14T00:30:30;3.80;;;3.00;;
2618;SDS011;1319;52.346;13.096;2023-06-14T00:32:55;3.83;;;3.10;;
2618;SDS011;1319;52.346;13.096;2023-06-14T00:35:21;3.30;;;3.00;;
2618;SDS011;1319;52.346;13.096;2023-06-14T00:37:46;7.60;;;3.20;;
2618;SDS011;1319;52.346;13.096;2023-06-14T00:40:11;4.97;;;3.20;;
2618;SDS011;1319;52.346;13.096;2023-06-14T00:42:37;4.13;;;3.20;;
2618;SDS011;1319;52.346;13.096;2023-06-14T00:45:02;3.97;;;3.30;;
2618;SDS011;1319;52.346;13.096;2023-06-14T00:47:27;6.47;;;3.30;;
2618;SDS011;1319;52.346;13.096;2023-06-14T00:49:53;5.47;;;3.30;;
2618;SDS011;1319;52.346;13.096;2023-06-14T00:52:19;3.50;;;3.20;;
2618;SDS011;1319;52.346;13.096;2023-06-14T00:54:44;3.67;;;3.20;;
2618;SDS011;1319;52.346;13.096;2023-06-14T00:57:10;5.40;;;3.50;;
2618;SDS011;1319;52.346;13.096;2023-06-14T00:59:41;7.40;;;3.40;;
2618;SDS011;1319;52.346;13.096;2023-06-14T01:02:07;4.10;;;3.33;;
2618;SDS011;1319;52.346;13.096;2023-06-14T01:04:32;4.13;;;3.50;;
2618;SDS011;1319;52.346;13.096;2023-06-14T01:07:02;5.10;;;3.40;;
2618;SDS011;1319;52.346;13.096;2023-06-14T01:09:43;3.67;;;3.37;;
2618;SDS011;1319;52.346;13.096;2023-06-14T01:12:24;4.93;;;3.23;;
2618;SDS011;1319;52.346;13.096;2023-06-14T01:14:52;9.00;;;3.50;;
2618;SDS011;1319;52.346;13.096;2023-06-14T01:17:18;3.70;;;3.40;;
2618;SDS011;1319;52.346;13.096;2023-06-14T01:19:44;5.57;;;3.23;;
2618;SDS011;1319;52.346;13.096;2023-06-14T01:22:10;5.60;;;3.33;;
2618;SDS011;1319;52.346;13.096;2023-06-14T01:24:36;7.90;;;3.40;;
2618;SDS011;1319;52.346;13.096;2023-06-14T01:27:01;6.77;;;3.10;;
2618;SDS011;1319;52.346;13.096;2023-06-14T01:29:27;7.73;;;3.10;;
2618;SDS011;1319;52.346;13.096;2023-06-14T01:31:57;4.00;;;3.53;;
2618;SDS011;1319;52.346;13.096;2023-06-14T01:34:23;4.60;;;3.50;;
2618;SDS011;1319;52.346;13.096;2023-06-14T01:36:48;4.83;;;3.77;;
2618;SDS011;1319;52.346;13.096;2023-06-14T01:39:14;5.23;;;3.43;;
2618;SDS011;1319;52.346;13.096;2023-06-14T01:41:40;9.93;;;3.87;;
2618;SDS011;1319;52.346;13.096;2023-06-14T01:44:06;4.13;;;3.33;;
2618;SDS011;1319;52.346;13.096;2023-06-14T01:46:31;6.57;;;3.30;;
2618;SDS011;1319;52.346;13.096;2023-06-14T01:48:57;3.80;;;3.50;;
2618;SDS011;1319;52.346;13.096;2023-06-14T01:51:22;6.20;;;3.83;;
2618;SDS011;1319;52.346;13.096;2023-06-14T01:53:47;5.43;;;3.80;;
2618;SDS011;1319;52.346;13.096;2023-06-14T01:56:13;7.27;;;3.77;;
2618;SDS011;1319;52.346;13.096;2023-06-14T01:58:38;4.30;;;3.97;;
2618;SDS011;1319;52.346;13.096;2023-06-14T02:01:04;13.70;;;4.27;;
2618;SDS011;1319;52.346;13.096;2023-06-14T02:03:30;5.60;;;4.20;;
2618;SDS011;1319;52.346;13.096;2023-06-14T02:05:55;4.87;;;4.10;;
2618;SDS011;1319;52.346;13.096;2023-06-14T02:08:20;6.43;;;4.10;;
2618;SDS011;1319;52.346;13.096;2023-06-14T02:10:45;6.87;;;4.00;;
2618;SDS011;1319;52.346;13.096;2023-06-14T02:13:11;5.80;;;4.60;;
2618;SDS011;1319;52.346;13.096;2023-06-14T02:15:36;6.77;;;3.90;;
2618;SDS011;1319;52.346;13.096;2023-06-14T02:18:02;6.60;;;4.30;;
2618;SDS011;1319;52.346;13.096;2023-06-14T02:20:28;8.20;;;4.43;;
2618;SDS011;1319;52.346;13.096;2023-06-14T02:22:53;5.00;;;4.43;;
2618;SDS011;1319;52.346;13.096;2023-06-14T02:25:18;5.30;;;4.80;;
2618;SDS011;1319;52.346;13.096;2023-06-14T02:27:44;5.13;;;4.60;;
2618;SDS011;1319;52.346;13.096;2023-06-14T02:30:09;6.73;;;4.73;;
2618;SDS011;1319;52.346;13.096;2023-06-14T02:32:35;5.87;;;4.97;;
2618;SDS011;1319;52.346;13.096;2023-06-14T02:35:01;6.93;;;5.03;;
2618;SDS011;1319;52.346;13.096;2023-06-14T02:37:26;6.17;;;5.03;;
2618;SDS011;1319;52.346;13.096;2023-06-14T02:39:51;5.33;;;4.83;;
2618;SDS011;1319;52.346;13.096;2023-06-14T02:42:16;9.90;;;4.70;;
2618;SDS011;1319;52.346;13.096;2023-06-14T02:44:42;6.63;;;5.10;;
2618;SDS011;1319;52.346;13.096;2023-06-14T02:47:08;7.30;;;5.00;;
2618;SDS011;1319;52.346;13.096;2023-06-14T02:49:33;5.57;;;4.93;;
2618;SDS011;1319;52.346;13.096;2023-06-14T02:51:59;6.63;;;5.27;;
2618;SDS011;1319;52.346;13.096;2023-06-14T02:54:24;5.87;;;4.80;;
2618;SDS011;1319;52.346;13.096;2023-06-14T02:56:50;7.50;;;5.47;;
2618;SDS011;1319;52.346;13.096;2023-06-14T02:59:15;6.00;;;5.27;;
2618;SDS011;1319;52.346;13.096;2023-06-14T03:01:42;5.80;;;5.20;;
2618;SDS011;1319;52.346;13.096;2023-06-14T03:04:07;7.30;;;5.07;;
2618;SDS011;1319;52.346;13.096;2023-06-14T03:06:33;7.20;;;4.83;;
2618;SDS011;1319;52.346;13.096;2023-06-14T03:08:58;6.83;;;4.70;;
2618;SDS011;1319;52.346;13.096;2023-06-14T03:11:29;6.83;;;5.57;;
2618;SDS011;1319;52.346;13.096;2023-06-14T03:13:54;8.23;;;5.37;;
2618;SDS011;1319;52.346;13.096;2023-06-14T03:16:21;8.07;;;5.63;;
2618;SDS011;1319;52.346;13.096;2023-06-14T03:18:49;7.70;;;5.00;;
2618;SDS011;1319;52.346;13.096;2023-06-14T03:21:14;9.40;;;5.27;;
2618;SDS011;1319;52.346;13.096;2023-06-14T03:23:40;5.77;;;5.17;;
2618;SDS011;1319;52.346;13.096;2023-06-14T03:26:06;7.47;;;5.60;;
2618;SDS011;1319;52.346;13.096;2023-06-14T03:28:31;6.90;;;5.17;;
2618;SDS011;1319;52.346;13.096;2023-06-14T03:30:56;8.60;;;5.87;;
2618;SDS011;1319;52.346;13.096;2023-06-14T03:33:21;8.20;;;5.63;;
2618;SDS011;1319;52.346;13.096;2023-06-14T03:35:46;6.20;;;5.50;;
2618;SDS011;1319;52.346;13.096;2023-06-14T03:38:12;6.87;;;5.60;;
2618;SDS011;1319;52.346;13.096;2023-06-14T03:40:37;6.73;;;5.53;;
2618;SDS011;1319;52.346;13.096;2023-06-14T03:43:02;11.93;;;5.47;;
2618;SDS011;1319;52.346;13.096;2023-06-14T03:45:27;10.90;;;6.37;;
2618;SDS011;1319;52.346;13.096;2023-06-14T03:47:53;8.60;;;6.37;;
2618;SDS011;1319;52.346;13.096;2023-06-14T03:50:19;6.60;;;5.40;;
2618;SDS011;1319;52.346;13.096;2023-06-14T03:52:44;9.07;;;5.40;;
2618;SDS011;1319;52.346;13.096;2023-06-14T03:55:10;11.80;;;6.13;;
2618;SDS011;1319;52.346;13.096;2023-06-14T03:57:38;7.27;;;6.23;;
2618;SDS011;1319;52.346;13.096;2023-06-14T04:00:03;9.00;;;6.53;;
2618;SDS011;1319;52.346;13.096;2023-06-14T04:02:30;10.97;;;6.33;;
2618;SDS011;1319;52.346;13.096;2023-06-14T04:04:56;9.63;;;6.67;;
2618;SDS011;1319;52.346;13.096;2023-06-14T04:07:21;7.47;;;6.23;;
2618;SDS011;1319;52.346;13.096;2023-06-14T04:09:46;11.17;;;6.40;;
2618;SDS011;1319;52.346;13.096;2023-06-14T04:12:12;12.33;;;6.40;;
2618;SDS011;1319;52.346;13.096;2023-06-14T04:14:37;9.37;;;6.47;;
2618;SDS011;1319;52.346;13.096;2023-06-14T04:17:03;15.60;;;6.33;;
2618;SDS011;1319;52.346;13.096;2023-06-14T04:19:28;7.87;;;6.50;;
2618;SDS011;1319;52.346;13.096;2023-06-14T04:21:53;15.07;;;7.23;;
2618;SDS011;1319;52.346;13.096;2023-06-14T04:24:18;12.27;;;7.80;;
2618;SDS011;1319;52.346;13.096;2023-06-14T04:26:44;12.27;;;7.30;;
2618;SDS011;1319;52.346;13.096;2023-06-14T04:29:12;11.07;;;7.07;;
2618;SDS011;1319;52.346;13.096;2023-06-14T04:31:43;14.67;;;7.60;;
2618;SDS011;1319;52.346;13.096;2023-06-14T04:34:09;17.17;;;7.73;;
2618;SDS011;1319;52.346;13.096;2023-06-14T04:36:41;15.07;;;7.90;;
2618;SDS011;1319;52.346;13.096;2023-06-14T04:39:12;13.63;;;8.40;;
2618;SDS011;1319;52.346;13.096;2023-06-14T04:41:38;11.47;;;8.60;;
2618;SDS011;1319;52.346;13.096;2023-06-14T04:44:03;16.93;;;8.80;;
2618;SDS011;1319;52.346;13.096;2023-06-14T04:46:28;10.60;;;8.53;;
2618;SDS011;1319;52.346;13.096;2023-06-14T04:48:54;12.60;;;9.10;;
2618;SDS011;1319;52.346;13.096;2023-06-14T04:51:19;13.40;;;9.10;;
2618;SDS011;1319;52.346;13.096;2023-06-14T04:53:47;13.90;;;8.57;;
2618;SDS011;1319;52.346;13.096;2023-06-14T04:56:14;11.13;;;9.07;;
2618;SDS011;1319;52.346;13.096;2023-06-14T04:58:39;14.97;;;9.43;;
2618;SDS011;1319;52.346;13.096;2023-06-14T05:01:05;14.30;;;9.10;;
2618;SDS011;1319;52.346;13.096;2023-06-14T05:03:30;11.40;;;8.50;;
2618;SDS011;1319;52.346;13.096;2023-06-14T05:05:55;15.47;;;9.20;;
2618;SDS011;1319;52.346;13.096;2023-06-14T05:08:20;10.90;;;7.63;;
2618;SDS011;1319;52.346;13.096;2023-06-14T05:10:48;12.57;;;7.77;;
2618;SDS011;1319;52.346;13.096;2023-06-14T05:13:13;11.30;;;8.40;;
2618;SDS011;1319;52.346;13.096;2023-06-14T05:15:38;13.13;;;8.10;;
2618;SDS011;1319;52.346;13.096;2023-06-14T05:18:04;13.23;;;8.47;;
2618;SDS011;1319;52.346;13.096;2023-06-14T05:20:29;10.40;;;7.77;;
2618;SDS011;1319;52.346;13.096;2023-06-14T05:22:55;13.27;;;7.70;;
2618;SDS011;1319;52.346;13.096;2023-06-14T05:25:22;10.53;;;7.40;;
2618;SDS011;1319;52.346;13.096;2023-06-14T05:27:47;14.17;;;7.53;;
2618;SDS011;1319;52.346;13.096;2023-06-14T05:30:13;13.63;;;7.90;;
2618;SDS011;1319;52.346;13.096;2023-06-14T05:32:39;9.50;;;6.87;;
2618;SDS011;1319;52.346;13.096;2023-06-14T05:35:04;9.67;;;6.77;;
2618;SDS011;1319;52.346;13.096;2023-06-14T05:37:30;11.53;;;7.33;;
2618;SDS011;1319;52.346;13.096;2023-06-14T05:39:56;7.87;;;7.00;;
2618;SDS011;1319;52.346;13.096;2023-06-14T05:42:21;8.73;;;6.60;;
2618;SDS011;1319;52.346;13.096;2023-06-14T05:44:46;10.00;;;6.00;;
2618;SDS011;1319;52.346;13.096;2023-06-14T05:47:11;10.93;;;6.20;;
2618;SDS011;1319;52.346;13.096;2023-06-14T05:49:37;9.10;;;6.67;;
2618;SDS011;1319;52.346;13.096;2023-06-14T05:52:02;9.47;;;5.80;;
2618;SDS011;1319;52.346;13.096;2023-06-14T05:54:27;7.27;;;6.00;;
2618;SDS011;1319;52.346;13.096;2023-06-14T05:56:53;9.17;;;5.90;;
2618;SDS011;1319;52.346;13.096;2023-06-14T05:59:18;6.87;;;6.00;;
2618;SDS011;1319;52.346;13.096;2023-06-14T06:01:43;7.03;;;6.03;;
2618;SDS011;1319;52.346;13.096;2023-06-14T06:04:08;10.87;;;6.47;;
2618;SDS011;1319;52.346;13.096;2023-06-14T06:06:33;9.27;;;6.43;;
2618;SDS011;1319;52.346;13.096;2023-06-14T06:09:00;6.43;;;5.47;;
2618;SDS011;1319;52.346;13.096;2023-06-14T06:11:25;9.47;;;5.77;;
2618;SDS011;1319;52.346;13.096;2023-06-14T06:13:50;14.60;;;6.13;;
2618;SDS011;1319;52.346;13.096;2023-06-14T06:16:15;7.20;;;5.37;;
2618;SDS011;1319;52.346;13.096;2023-06-14T06:18:41;6.37;;;4.87;;
2618;SDS011;1319;52.346;13.096;2023-06-14T06:21:06;7.83;;;5.13;;
2618;SDS011;1319;52.346;13.096;2023-06-14T06:23:31;10.20;;;4.70;;
2618;SDS011;1319;52.346;13.096;2023-06-14T06:25:56;5.97;;;5.33;;
2618;SDS011;1319;52.346;13.096;2023-06-14T06:28:22;5.43;;;4.37;;
2618;SDS011;1319;52.346;13.096;2023-06-14T06:30:47;4.73;;;4.33;;
2618;SDS011;1319;52.346;13.096;2023-06-14T06:33:12;5.87;;;4.73;;
2618;SDS011;1319;52.346;13.096;2023-06-14T06:35:39;8.23;;;4.63;;
2618;SDS011;1319;52.346;13.096;2023-06-14T06:38:04;4.73;;;4.33;;
2618;SDS011;1319;52.346;13.096;2023-06-14T06:40:29;4.60;;;4.00;;
2618;SDS011;1319;52.346;13.096;2023-06-14T06:42:55;8.87;;;4.43;;
2618;SDS011;1319;52.346;13.096;2023-06-14T06:45:20;4.70;;;4.03;;
2618;SDS011;1319;52.346;13.096;2023-06-14T06:47:46;5.03;;;4.53;;
2618;SDS011;1319;52.346;13.096;2023-06-14T06:50:11;5.97;;;4.10;;
2618;SDS011;1319;52.346;13.096;2023-06-14T06:52:36;5.67;;;3.80;;
2618;SDS011;1319;52.346;13.096;2023-06-14T06:55:01;7.70;;;3.80;;
2618;SDS011;1319;52.346;13.096;2023-06-14T06:57:27;11.40;;;4.87;;
2618;SDS011;1319;52.346;13.096;2023-06-14T06:59:54;4.63;;;3.90;;
2618;SDS011;1319;52.346;13.096;2023-06-14T07:02:19;6.27;;;4.10;;
2618;SDS011;1319;52.346;13.096;2023-06-14T07:04:44;7.47;;;4.37;;
2618;SDS011;1319;52.346;13.096;2023-06-14T07:07:09;5.50;;;3.93;;
2618;SDS011;1319;52.346;13.096;2023-06-14T07:09:35;8.17;;;4.10;;
2618;SDS011;1319;52.346;13.096;2023-06-14T07:12:00;10.90;;;3.90;;
2618;SDS011;1319;52.346;13.096;2023-06-14T07:14:25;8.40;;;4.00;;
2618;SDS011;1319;52.346;13.096;2023-06-14T07:16:50;11.30;;;4.40;;
2618;SDS011;1319;52.346;13.096;2023-06-14T07:19:16;7.63;;;4.80;;
2618;SDS011;1319;52.346;13.096;2023-06-14T07:21:42;5.30;;;4.63;;
2618;SDS011;1319;52.346;13.096;2023-06-14T07:24:07;5.50;;;3.90;;
2618;SDS011;1319;52.346;13.096;2023-06-14T07:26:33;4.37;;;3.97;;
2618;SDS011;1319;52.346;13.096;2023-06-14T07:28:58;7.97;;;4.33;;
2618;SDS011;1319;52.346;13.096;2023-06-14T07:31:23;5.93;;;4.20;;
2618;SDS011;1319;52.346;13.096;2023-06-14T07:33:48;6.70;;;4.23;;
2618;SDS011;1319;52.346;13.096;2023-06-14T07:36:14;8.03;;;4.50;;
2618;SDS011;1319;52.346;13.096;2023-06-14T07:38:39;7.07;;;4.47;;
2618;SDS011;1319;52.346;13.096;2023-06-14T07:41:05;5.80;;;4.40;;
2618;SDS011;1319;52.346;13.096;2023-06-14T07:43:31;6.23;;;4.30;;
2618;SDS011;1319;52.346;13.096;2023-06-14T07:45:56;7.70;;;4.67;;
2618;SDS011;1319;52.346;13.096;2023-06-14T07:48:22;8.63;;;4.93;;
2618;SDS011;1319;52.346;13.096;2023-06-14T07:50:47;5.80;;;4.60;;
2618;SDS011;1319;52.346;13.096;2023-06-14T07:53:12;9.43;;;4.73;;
2618;SDS011;1319;52.346;13.096;2023-06-14T07:55:37;5.70;;;5.17;;
2618;SDS011;1319;52.346;13.096;2023-06-14T07:58:03;8.13;;;5.20;;
2618;SDS011;1319;52.346;13.096;2023-06-14T08:00:28;10.97;;;5.13;;
2618;SDS011;1319;52.346;13.096;2023-06-14T08:02:54;14.30;;;5.57;;
2618;SDS011;1319;52.346;13.096;2023-06-14T08:05:23;7.70;;;5.00;;
2618;SDS011;1319;52.346;13.096;2023-06-14T08:07:49;5.20;;;4.47;;
2618;SDS011;1319;52.346;13.096;2023-06-14T08:10:14;8.53;;;5.07;;
2618;SDS011;1319;52.346;13.096;2023-06-14T08:12:39;5.33;;;4.47;;
2618;SDS011;1319;52.346;13.096;2023-06-14T08:15:04;6.47;;;4.53;;
2618;SDS011;1319;52.346;13.096;2023-06-14T08:17:30;8.33;;;4.60;;
2618;SDS011;1319;52.346;13.096;2023-06-14T08:19:55;5.63;;;4.63;;
2618;SDS011;1319;52.346;13.096;2023-06-14T08:22:22;5.47;;;4.00;;
2618;SDS011;1319;52.346;13.096;2023-06-14T08:24:49;10.40;;;4.60;;
2618;SDS011;1319;52.346;13.096;2023-06-14T08:27:14;6.20;;;4.20;;
2618;SDS011;1319;52.346;13.096;2023-06-14T08:29:40;5.97;;;4.50;;
2618;SDS011;1319;52.346;13.096;2023-06-14T08:32:06;8.60;;;4.40;;
2618;SDS011;1319;52.346;13.096;2023-06-14T08:34:31;8.10;;;4.47;;
2618;SDS011;1319;52.346;13.096;2023-06-14T08:36:57;9.50;;;4.10;;
2618;SDS011;1319;52.346;13.096;2023-06-14T08:39:22;6.40;;;4.17;;
2618;SDS011;1319;52.346;13.096;2023-06-14T08:41:47;4.80;;;4.30;;
2618;SDS011;1319;52.346;13.096;2023-06-14T08:44:16;8.03;;;4.60;;
2618;SDS011;1319;52.346;13.096;2023-06-14T08:46:42;5.03;;;4.10;;
2618;SDS011;1319;52.346;13.096;2023-06-14T08:49:07;10.30;;;4.30;;
2618;SDS011;1319;52.346;13.096;2023-06-14T08:51:33;8.17;;;4.73;;
2618;SDS011;1319;52.346;13.096;2023-06-14T08:54:02;6.40;;;3.80;;
2618;SDS011;1319;52.346;13.096;2023-06-14T08:56:29;7.03;;;3.83;;
2618;SDS011;1319;52.346;13.096;2023-06-14T08:58:55;8.10;;;3.90;;
2618;SDS011;1319;52.346;13.096;2023-06-14T09:01:21;8.53;;;3.73;;
2618;SDS011;1319;52.346;13.096;2023-06-14T09:03:46;6.50;;;3.70;;
2618;SDS011;1319;52.346;13.096;2023-06-14T09:06:13;9.53;;;3.20;;
2618;SDS011;1319;52.346;13.096;2023-06-14T09:08:42;6.17;;;3.53;;
2618;SDS011;1319;52.346;13.096;2023-06-14T09:11:08;7.90;;;3.70;;
2618;SDS011;1319;52.346;13.096;2023-06-14T09:13:33;6.03;;;3.43;;
2618;SDS011;1319;52.346;13.096;2023-06-14T09:15:59;5.85;;;4.15;;
2618;SDS011;1319;52.346;13.096;2023-06-14T09:18:43;7.00;;;3.50;;
2618;SDS011;1319;52.346;13.096;2023-06-14T09:21:09;4.20;;;3.75;;
2618;SDS011;1319;52.346;13.096;2023-06-14T09:23:39;5.30;;;4.07;;
2618;SDS011;1319;52.346;13.096;2023-06-14T09:26:08;4.22;;;3.83;;
2618;SDS011;1319;52.346;13.096;2023-06-14T09:28:34;6.38;;;3.53;;
2618;SDS011;1319;52.346;13.096;2023-06-14T09:31:00;5.10;;;3.63;;
2618;SDS011;1319;52.346;13.096;2023-06-14T09:33:25;9.48;;;3.28;;
2618;SDS011;1319;52.346;13.096;2023-06-14T09:35:53;5.22;;;2.88;;
2618;SDS011;1319;52.346;13.096;2023-06-14T09:38:19;6.35;;;3.28;;
2618;SDS011;1319;52.346;13.096;2023-06-14T09:40:44;6.70;;;3.55;;
2618;SDS011;1319;52.346;13.096;2023-06-14T09:43:09;4.50;;;3.10;;
2618;SDS011;1319;52.346;13.096;2023-06-14T09:45:35;8.80;;;3.45;;
2618;SDS011;1319;52.346;13.096;2023-06-14T09:48:00;3.47;;;3.13;;
2618;SDS011;1319;52.346;13.096;2023-06-14T09:50:25;6.30;;;3.65;;
2618;SDS011;1319;52.346;13.096;2023-06-14T09:52:52;4.37;;;3.27;;
2618;SDS011;1319;52.346;13.096;2023-06-14T09:55:17;9.27;;;3.50;;
2618;SDS011;1319;52.346;13.096;2023-06-14T09:57:43;12.53;;;3.80;;
2618;SDS011;1319;52.346;13.096;2023-06-14T10:00:11;11.82;;;3.75;;
2618;SDS011;1319;52.346;13.096;2023-06-14T10:02:37;4.30;;;3.17;;
2618;SDS011;1319;52.346;13.096;2023-06-14T10:07:32;8.30;;;3.58;;
2618;SDS011;1319;52.346;13.096;2023-06-14T10:09:59;7.85;;;3.40;;
2618;SDS011;1319;52.346;13.096;2023-06-14T10:12:24;7.43;;;3.30;;
2618;SDS011;1319;52.346;13.096;2023-06-14T10:14:50;9.88;;;3.30;;
2618;SDS011;1319;52.346;13.096;2023-06-14T10:17:33;7.60;;;3.42;;
2618;SDS011;1319;52.346;13.096;2023-06-14T10:22:50;17.00;;;3.97;;
2618;SDS011;1319;52.346;13.096;2023-06-14T10:25:26;9.65;;;3.22;;
2618;SDS011;1319;52.346;13.096;2023-06-14T10:27:52;8.07;;;3.50;;
2618;SDS011;1319;52.346;13.096;2023-06-14T10:30:17;7.78;;;3.38;;
2618;SDS011;1319;52.346;13.096;2023-06-14T10:33:08;11.00;;;3.47;;
2618;SDS011;1319;52.346;13.096;2023-06-14T10:35:34;7.55;;;4.18;;
2618;SDS011;1319;52.346;13.096;2023-06-14T10:38:10;6.95;;;3.65;;
2618;SDS011;1319;52.346;13.096;2023-06-14T10:40:36;3.35;;;3.10;;
2618;SDS011;1319;52.346;13.096;2023-06-14T10:43:11;13.40;;;3.45;;
2618;SDS011;1319;52.346;13.096;2023-06-14T10:48:29;9.77;;;3.65;;
2618;SDS011;1319;52.346;13.096;2023-06-14T10:50:59;5.95;;;3.17;;
2618;SDS011;1319;52.346;13.096;2023-06-14T10:53:25;7.30;;;3.40;;
2618;SDS011;1319;52.346;13.096;2023-06-14T10:55:50;6.13;;;3.28;;
2618;SDS011;1319;52.346;13.096;2023-06-14T10:58:16;6.70;;;3.15;;
2618;SDS011;1319;52.346;13.096;2023-06-14T11:00:41;3.72;;;3.30;;
2618;SDS011;1319;52.346;13.096;2023-06-14T11:05:56;5.07;;;3.22;;
2618;SDS011;1319;52.346;13.096;2023-06-14T11:08:26;4.30;;;3.47;;
2618;SDS011;1319;52.346;13.096;2023-06-14T11:10:52;4.00;;;3.35;;
2618;SDS011;1319;52.346;13.096;2023-06-14T11:13:19;6.32;;;3.30;;
2618;SDS011;1319;52.346;13.096;2023-06-14T11:15:45;6.30;;;3.00;;
2618;SDS011;1319;52.346;13.096;2023-06-14T11:18:14;7.80;;;3.33;;
2618;SDS011;1319;52.346;13.096;2023-06-14T11:20:41;5.50;;;3.10;;
2618;SDS011;1319;52.346;13.096;2023-06-14T11:23:06;8.23;;;3.55;;
2618;SDS011;1319;52.346;13.096;2023-06-14T11:25:32;6.72;;;3.38;;
2618;SDS011;1319;52.346;13.096;2023-06-14T11:27:57;9.25;;;3.42;;
2618;SDS011;1319;52.346;13.096;2023-06-14T11:30:23;3.25;;;3.03;;
2618;SDS011;1319;52.346;13.096;2023-06-14T11:32:48;7.00;;;3.33;;
2618;SDS011;1319;52.346;13.096;2023-06-14T11:35:14;7.25;;;3.15;;
2618;SDS011;1319;52.346;13.096;2023-06-14T11:37:40;7.47;;;3.33;;
2618;SDS011;1319;52.346;13.096;2023-06-14T11:40:06;15.52;;;3.75;;
2618;SDS011;1319;52.346;13.096;2023-06-14T11:42:34;10.50;;;3.47;;
2618;SDS011;1319;52.346;13.096;2023-06-14T11:45:00;12.48;;;3.22;;
2618;SDS011;1319;52.346;13.096;2023-06-14T11:47:33;6.68;;;3.53;;
2618;SDS011;1319;52.346;13.096;2023-06-14T11:50:08;5.20;;;3.33;;
2618;SDS011;1319;52.346;13.096;2023-06-14T11:52:34;7.47;;;3.53;;
2618;SDS011;1319;52.346;13.096;2023-06-14T11:54:59;3.03;;;2.80;;
2618;SDS011;1319;52.346;13.096;2023-06-14T11:57:25;4.82;;;3.20;;
2618;SDS011;1319;52.346;13.096;2023-06-14T11:59:51;15.00;;;3.17;;
2618;SDS011;1319;52.346;13.096;2023-06-14T12:02:16;3.78;;;3.30;;
2618;SDS011;1319;52.346;13.096;2023-06-14T12:04:42;10.57;;;3.40;;
2618;SDS011;1319;52.346;13.096;2023-06-14T12:07:11;3.78;;;3.25;;
2618;SDS011;1319;52.346;13.096;2023-06-14T12:12:20;7.45;;;3.38;;
2618;SDS011;1319;52.346;13.096;2023-06-14T12:14:46;7.28;;;3.28;;
2618;SDS011;1319;52.346;13.096;2023-06-14T12:17:11;5.53;;;3.20;;
2618;SDS011;1319;52.346;13.096;2023-06-14T12:19:43;9.43;;;3.10;;
2618;SDS011;1319;52.346;13.096;2023-06-14T12:22:09;14.30;;;3.20;;
2618;SDS011;1319;52.346;13.096;2023-06-14T12:24:35;6.63;;;3.42;;
2618;SDS011;1319;52.346;13.096;2023-06-14T12:27:00;6.75;;;3.47;;
2618;SDS011;1319;52.346;13.096;2023-06-14T12:29:27;6.18;;;3.05;;
2618;SDS011;1319;52.346;13.096;2023-06-14T12:31:53;5.68;;;2.90;;
2618;SDS011;1319;52.346;13.096;2023-06-14T12:34:19;8.57;;;3.05;;
2618;SDS011;1319;52.346;13.096;2023-06-14T12:36:44;7.95;;;3.38;;
2618;SDS011;1319;52.346;13.096;2023-06-14T12:39:11;10.60;;;3.22;;
2618;SDS011;1319;52.346;13.096;2023-06-14T12:41:36;9.38;;;3.00;;
2618;SDS011;1319;52.346;13.096;2023-06-14T12:44:02;10.10;;;3.58;;
2618;SDS011;1319;52.346;13.096;2023-06-14T12:46:29;5.15;;;3.33;;
2618;SDS011;1319;52.346;13.096;2023-06-14T12:48:56;5.95;;;3.25;;
2618;SDS011;1319;52.346;13.096;2023-06-14T12:51:21;7.85;;;3.08;;
2618;SDS011;1319;52.346;13.096;2023-06-14T12:53:47;7.70;;;3.38;;
2618;SDS011;1319;52.346;13.096;2023-06-14T12:56:12;7.90;;;3.05;;
2618;SDS011;1319;52.346;13.096;2023-06-14T12:58:37;4.25;;;3.22;;
2618;SDS011;1319;52.346;13.096;2023-06-14T13:01:03;9.98;;;3.42;;
2618;SDS011;1319;52.346;13.096;2023-06-14T13:03:28;12.50;;;3.47;;
2618;SDS011;1319;52.346;13.096;2023-06-14T13:05:53;9.38;;;3.20;;
2618;SDS011;1319;52.346;13.096;2023-06-14T13:08:18;14.15;;;3.30;;
2618;SDS011;1319;52.346;13.096;2023-06-14T13:10:44;7.55;;;3.08;;
2618;SDS011;1319;52.346;13.096;2023-06-14T13:13:09;15.00;;;3.28;;
2618;SDS011;1319;52.346;13.096;2023-06-14T13:15:37;5.93;;;3.53;;
2618;SDS011;1319;52.346;13.096;2023-06-14T13:18:03;11.98;;;3.10;;
2618;SDS011;1319;52.346;13.096;2023-06-14T13:20:28;8.93;;;3.13;;
2618;SDS011;1319;52.346;13.096;2023-06-14T13:22:54;5.28;;;3.55;;
2618;SDS011;1319;52.346;13.096;2023-06-14T13:25:19;6.53;;;3.17;;
2618;SDS011;1319;52.346;13.096;2023-06-14T13:27:44;16.02;;;3.65;;
2618;SDS011;1319;52.346;13.096;2023-06-14T13:30:09;8.25;;;3.65;;
2618;SDS011;1319;52.346;13.096;2023-06-14T13:32:35;10.02;;;3.63;;
2618;SDS011;1319;52.346;13.096;2023-06-14T13:35:00;6.78;;;3.22;;
2618;SDS011;1319;52.346;13.096;2023-06-14T13:37:25;13.57;;;3.28;;
2618;SDS011;1319;52.346;13.096;2023-06-14T13:39:51;12.77;;;3.50;;
2618;SDS011;1319;52.346;13.096;2023-06-14T13:42:16;5.40;;;3.40;;
2618;SDS011;1319;52.346;13.096;2023-06-14T13:44:41;14.63;;;3.70;;
2618;SDS011;1319;52.346;13.096;2023-06-14T13:47:06;6.78;;;3.90;;
2618;SDS011;1319;52.346;13.096;2023-06-14T13:49:32;8.02;;;3.90;;
2618;SDS011;1319;52.346;13.096;2023-06-14T13:51:59;9.07;;;3.40;;
2618;SDS011;1319;52.346;13.096;2023-06-14T13:54:24;5.95;;;3.80;;
2618;SDS011;1319;52.346;13.096;2023-06-14T13:56:49;6.82;;;3.53;;
2618;SDS011;1319;52.346;13.096;2023-06-14T13:59:15;9.48;;;3.83;;
2618;SDS011;1319;52.346;13.096;2023-06-14T14:01:41;10.95;;;3.17;;
2618;SDS011;1319;52.346;13.096;2023-06-14T14:04:06;11.32;;;3.40;;
2618;SDS011;1319;52.346;13.096;2023-06-14T14:06:31;8.32;;;3.65;;
2618;SDS011;1319;52.346;13.096;2023-06-14T14:08:57;5.88;;;3.35;;
2618;SDS011;1319;52.346;13.096;2023-06-14T14:11:22;5.05;;;3.53;;
2618;SDS011;1319;52.346;13.096;2023-06-14T14:13:47;6.10;;;3.30;;
2618;SDS011;1319;52.346;13.096;2023-06-14T14:16:13;11.57;;;3.90;;
2618;SDS011;1319;52.346;13.096;2023-06-14T14:18:38;9.13;;;3.63;;
2618;SDS011;1319;52.346;13.096;2023-06-14T14:21:03;12.75;;;3.72;;
2618;SDS011;1319;52.346;13.096;2023-06-14T14:23:29;10.65;;;4.05;;
2618;SDS011;1319;52.346;13.096;2023-06-14T14:25:54;12.43;;;2.97;;
2618;SDS011;1319;52.346;13.096;2023-06-14T14:28:19;6.63;;;3.40;;
2618;SDS011;1319;52.346;13.096;2023-06-14T14:30:45;6.13;;;3.38;;
2618;SDS011;1319;52.346;13.096;2023-06-14T14:33:12;7.38;;;4.20;;
2618;SDS011;1319;52.346;13.096;2023-06-14T14:35:40;7.65;;;3.30;;
2618;SDS011;1319;52.346;13.096;2023-06-14T14:38:06;6.95;;;3.30;;
2618;SDS011;1319;52.346;13.096;2023-06-14T14:40:31;4.97;;;3.60;;
2618;SDS011;1319;52.346;13.096;2023-06-14T14:42:56;10.90;;;3.20;;
2618;SDS011;1319;52.346;13.096;2023-06-14T14:45:21;7.03;;;3.33;;
2618;SDS011;1319;52.346;13.096;2023-06-14T14:47:47;8.70;;;3.35;;
2618;SDS011;1319;52.346;13.096;2023-06-14T14:50:12;9.30;;;3.25;;
2618;SDS011;1319;52.346;13.096;2023-06-14T14:52:37;16.35;;;3.47;;
2618;SDS011;1319;52.346;13.096;2023-06-14T14:55:02;8.88;;;3.95;;
2618;SDS011;1319;52.346;13.096;2023-06-14T14:57:28;8.05;;;3.70;;
2618;SDS011;1319;52.346;13.096;2023-06-14T14:59:55;6.72;;;3.58;;
2618;SDS011;1319;52.346;13.096;2023-06-14T15:02:20;5.22;;;3.13;;
2618;SDS011;1319;52.346;13.096;2023-06-14T15:04:45;5.57;;;3.50;;